createdAt,value
2022-07-30T00:00:49.165Z,101614.03
2022-07-30T00:03:15.876Z,101623.59
2022-07-30T00:05:42.483Z,101613.31
2022-07-30T00:08:09.023Z,101620.69
2022-07-30T00:10:35.660Z,101619.34
2022-07-30T00:13:02.258Z,101624.81
2022-07-30T00:15:28.875Z,101617.03
2022-07-30T00:17:55.491Z,101619.53
2022-07-30T00:20:22.823Z,101613.66
2022-07-30T00:22:49.400Z,101607.59
2022-07-30T00:25:18.596Z,101605.31
2022-07-30T00:27:45.471Z,101618.81
2022-07-30T00:30:12.822Z,101614.66
2022-07-30T00:32:39.375Z,101603.56
2022-07-30T00:35:06.706Z,101614.91
2022-07-30T00:37:33.299Z,101608.28
2022-07-30T00:40:00.040Z,101620.94
2022-07-30T00:42:41.825Z,101607.34
2022-07-30T00:45:10.186Z,101605.69
2022-07-30T00:47:37.699Z,101598.50
2022-07-30T00:50:06.155Z,101597.94
2022-07-30T00:52:33.477Z,101588.50
2022-07-30T00:55:00.697Z,101587.66
2022-07-30T00:57:28.322Z,101589.56
2022-07-30T00:59:55.354Z,101587.28
2022-07-30T01:02:22.369Z,101589.78
2022-07-30T01:04:49.132Z,101583.63
2022-07-30T01:07:15.805Z,101580.38
2022-07-30T01:09:42.360Z,101575.59
2022-07-30T01:12:17.564Z,101578.34
2022-07-30T01:14:44.513Z,101572.78
2022-07-30T01:17:11.168Z,101569.09
2022-07-30T01:19:49.904Z,101570.09
2022-07-30T01:22:24.309Z,101559.09
2022-07-30T01:25:15.393Z,101558.00
2022-07-30T01:27:47.770Z,101561.22
2022-07-30T01:30:19.044Z,101562.88
2022-07-30T01:32:47.718Z,101551.25
2022-07-30T01:35:16.357Z,101554.56
2022-07-30T01:37:44.736Z,101562.75
2022-07-30T01:40:12.772Z,101557.75
2022-07-30T01:42:40.646Z,101555.56
2022-07-30T01:45:09.241Z,101554.78
2022-07-30T01:47:38.759Z,101551.28
2022-07-30T01:50:08.045Z,101547.75
2022-07-30T01:52:38.534Z,101550.88
2022-07-30T01:55:17.029Z,101549.09
2022-07-30T01:57:46.989Z,101538.34
2022-07-30T02:00:14.255Z,101532.28
2022-07-30T02:02:41.381Z,101538.59
2022-07-30T02:05:09.785Z,101540.78
2022-07-30T02:07:51.594Z,101534.19
2022-07-30T02:10:26.806Z,101527.00
2022-07-30T02:12:56.588Z,101533.56
2022-07-30T02:15:27.078Z,101534.59
2022-07-30T02:18:03.067Z,101536.94
2022-07-30T02:20:35.813Z,101548.06
2022-07-30T02:23:11.370Z,101540.78
2022-07-30T02:25:44.193Z,101543.97
2022-07-30T02:28:14.707Z,101541.25
2022-07-30T02:30:47.218Z,101531.59
2022-07-30T02:33:17.250Z,101529.16
2022-07-30T02:35:44.059Z,101533.69
2022-07-30T02:38:14.229Z,101533.78
2022-07-30T02:40:43.478Z,101523.53
2022-07-30T02:43:10.533Z,101528.78
2022-07-30T02:45:38.052Z,101527.53
2022-07-30T02:48:08.091Z,101525.56
2022-07-30T02:50:35.792Z,101524.97
2022-07-30T02:53:05.551Z,101521.56
2022-07-30T02:55:35.503Z,101518.97
2022-07-30T02:58:05.632Z,101519.03
2022-07-30T03:00:33.840Z,101518.94
2022-07-30T03:03:01.827Z,101513.00
2022-07-30T03:05:29.285Z,101521.84
2022-07-30T03:07:58.976Z,101519.41
2022-07-30T03:10:27.154Z,101518.06
2022-07-30T03:12:54.992Z,101522.78
2022-07-30T03:15:21.756Z,101523.34
2022-07-30T03:17:55.663Z,101519.13
2022-07-30T03:20:27.269Z,101527.09
2022-07-30T03:22:55.291Z,101527.91
2022-07-30T03:25:25.960Z,101530.31
2022-07-30T03:27:54.635Z,101529.84
2022-07-30T03:30:22.844Z,101524.28
2022-07-30T03:32:51.887Z,101525.84
2022-07-30T03:35:20.233Z,101519.19
2022-07-30T03:37:48.393Z,101520.72
2022-07-30T03:40:15.739Z,101522.50
2022-07-30T03:42:42.805Z,101522.34
2022-07-30T03:45:10.262Z,101529.44
2022-07-30T03:47:38.590Z,101516.38
2022-07-30T03:50:06.298Z,101522.28
2022-07-30T03:52:35.253Z,101519.94
2022-07-30T03:55:04.129Z,101527.19
2022-07-30T03:57:30.913Z,101526.78
2022-07-30T03:59:57.603Z,101519.81
2022-07-30T04:02:24.148Z,101516.34
2022-07-30T04:04:50.867Z,101526.66
2022-07-30T04:07:17.833Z,101531.91
2022-07-30T04:09:44.458Z,101520.03
2022-07-30T04:12:13.737Z,101523.06
2022-07-30T04:14:42.411Z,101526.84
2022-07-30T04:17:33.138Z,101519.19
2022-07-30T04:20:16.498Z,101520.84
2022-07-30T04:22:45.599Z,101529.84
2022-07-30T04:25:24.361Z,101526.22
2022-07-30T04:28:03.062Z,101531.00
2022-07-30T04:30:31.078Z,101521.81
2022-07-30T04:32:57.650Z,101526.75
2022-07-30T04:35:50.647Z,101521.38
2022-07-30T04:38:18.198Z,101521.38
2022-07-30T04:40:44.839Z,101523.09
2022-07-30T04:43:11.484Z,101526.50
2022-07-30T04:45:39.756Z,101527.88
2022-07-30T04:48:06.824Z,101536.88
2022-07-30T04:50:36.133Z,101534.66
2022-07-30T04:53:03.126Z,101534.78
2022-07-30T04:55:31.618Z,101534.53
2022-07-30T04:57:59.587Z,101532.16
2022-07-30T05:00:32.243Z,101532.53
2022-07-30T05:03:00.825Z,101524.91
2022-07-30T05:05:28.438Z,101533.00
2022-07-30T05:07:55.645Z,101526.81
2022-07-30T05:10:22.331Z,101528.19
2022-07-30T05:12:48.866Z,101537.47
2022-07-30T05:15:15.454Z,101534.19
2022-07-30T05:17:41.948Z,101532.78
2022-07-30T05:20:09.698Z,101539.09
2022-07-30T05:22:36.302Z,101533.53
2022-07-30T05:25:03.246Z,101535.97
2022-07-30T05:27:42.242Z,101540.69
2022-07-30T05:30:09.517Z,101540.72
2022-07-30T05:32:37.397Z,101546.22
2022-07-30T05:35:05.686Z,101548.44
2022-07-30T05:37:33.144Z,101544.19
2022-07-30T05:40:02.663Z,101544.38
2022-07-30T05:42:29.561Z,101544.34
2022-07-30T05:44:56.207Z,101545.06
2022-07-30T05:47:22.936Z,101548.47
2022-07-30T05:49:50.140Z,101548.47
2022-07-30T05:52:16.986Z,101558.50
2022-07-30T05:54:43.759Z,101555.63
2022-07-30T05:57:11.060Z,101554.03
2022-07-30T05:59:37.603Z,101563.16
2022-07-30T06:02:04.343Z,101562.22
2022-07-30T06:04:30.928Z,101553.69
2022-07-30T06:06:57.601Z,101549.53
2022-07-30T06:09:28.523Z,101548.56
2022-07-30T06:12:03.589Z,101545.28
2022-07-30T06:14:30.154Z,101553.59
2022-07-30T06:16:59.273Z,101557.81
2022-07-30T06:19:26.381Z,101552.13
2022-07-30T06:22:05.536Z,101550.97
2022-07-30T06:24:34.210Z,101554.56
2022-07-30T06:27:00.997Z,101553.19
2022-07-30T06:29:27.763Z,101552.13
2022-07-30T06:31:54.378Z,101563.22
2022-07-30T06:34:21.027Z,101566.00
2022-07-30T06:36:47.831Z,101565.41
2022-07-30T06:39:14.512Z,101574.81
2022-07-30T06:42:01.015Z,101579.84
2022-07-30T06:44:27.630Z,101579.31
2022-07-30T06:46:54.292Z,101575.78
2022-07-30T06:49:20.941Z,101569.44
2022-07-30T06:51:49.070Z,101574.47
2022-07-30T06:54:15.623Z,101574.75
2022-07-30T06:56:42.260Z,101574.78
2022-07-30T06:59:08.793Z,101578.06
2022-07-30T07:01:35.504Z,101573.47
2022-07-30T07:04:02.162Z,101586.16
2022-07-30T07:06:29.025Z,101584.31
2022-07-30T07:08:55.611Z,101581.28
2022-07-30T07:11:22.132Z,101577.69
2022-07-30T07:13:48.672Z,101587.09
2022-07-30T07:16:15.566Z,101591.25
2022-07-30T07:18:42.287Z,101587.94
2022-07-30T07:21:08.828Z,101586.28
2022-07-30T07:23:41.527Z,101581.88
2022-07-30T07:26:08.946Z,101575.50
2022-07-30T07:28:35.594Z,101577.19
2022-07-30T07:31:02.210Z,101575.22
2022-07-30T07:33:28.816Z,101575.25
2022-07-30T07:35:55.529Z,101575.00
2022-07-30T07:38:22.317Z,101571.13
2022-07-30T07:40:48.987Z,101579.16
2022-07-30T07:43:15.896Z,101584.13
2022-07-30T07:45:43.134Z,101579.69
2022-07-30T07:48:10.008Z,101585.78
2022-07-30T07:50:36.578Z,101583.56
2022-07-30T07:53:03.734Z,101583.00
2022-07-30T07:55:32.896Z,101585.78
2022-07-30T07:58:00.563Z,101587.97
2022-07-30T08:00:27.078Z,101587.13
2022-07-30T08:02:53.691Z,101589.06
2022-07-30T08:05:20.458Z,101590.97
2022-07-30T08:07:47.117Z,101589.56
2022-07-30T08:10:15.956Z,101585.69
2022-07-30T08:12:42.829Z,101593.38
2022-07-30T08:15:09.925Z,101587.00
2022-07-30T08:17:46.631Z,101594.47
2022-07-30T08:20:25.614Z,101594.47
2022-07-30T08:22:52.251Z,101588.59
2022-07-30T08:25:24.338Z,101586.66
2022-07-30T08:27:51.441Z,101586.63
2022-07-30T08:30:20.235Z,101590.22
2022-07-30T08:32:46.762Z,101587.94
2022-07-30T08:35:13.467Z,101603.13
2022-07-30T08:37:41.161Z,101594.56
2022-07-30T08:40:08.712Z,101596.56
2022-07-30T08:42:35.938Z,101590.97
2022-07-30T08:45:03.129Z,101594.06
2022-07-30T08:47:34.484Z,101587.72
2022-07-30T08:50:05.264Z,101595.19
2022-07-30T08:52:33.253Z,101604.88
2022-07-30T08:55:01.057Z,101607.97
2022-07-30T08:57:34.638Z,101607.97
2022-07-30T09:00:02.199Z,101611.25
2022-07-30T09:02:31.752Z,101601.28
2022-07-30T09:04:58.683Z,101606.25
2022-07-30T09:07:25.737Z,101607.41
2022-07-30T09:09:52.245Z,101608.59
2022-07-30T09:12:42.962Z,101605.66
2022-07-30T09:15:15.496Z,101617.66
2022-07-30T09:17:48.088Z,101612.66
2022-07-30T09:20:15.538Z,101612.88
2022-07-30T09:22:44.457Z,101611.84
2022-07-30T09:25:14.158Z,101607.34
2022-07-30T09:27:49.140Z,101615.72
2022-07-30T09:30:16.760Z,101614.78
2022-07-30T09:32:54.938Z,101619.97
2022-07-30T09:35:23.058Z,101625.75
2022-07-30T09:38:04.573Z,101618.56
2022-07-30T09:40:32.933Z,101622.88
2022-07-30T09:43:10.422Z,101638.31
2022-07-30T09:45:56.804Z,101638.44
2022-07-30T09:48:28.508Z,101639.28
2022-07-30T09:50:57.510Z,101632.91
2022-07-30T09:53:24.980Z,101638.44
2022-07-30T09:55:51.731Z,101631.25
2022-07-30T09:58:26.711Z,101629.50
2022-07-30T10:00:59.537Z,101640.81
2022-07-30T10:03:33.587Z,101645.47
2022-07-30T10:06:08.819Z,101634.94
2022-07-30T10:08:40.993Z,101645.00
2022-07-30T10:11:11.808Z,101643.91
2022-07-30T10:13:42.730Z,101639.53
2022-07-30T10:16:12.141Z,101635.66
2022-07-30T10:18:40.779Z,101644.22
2022-07-30T10:21:08.339Z,101636.19
2022-07-30T10:23:36.011Z,101643.91
2022-07-30T10:26:03.771Z,101645.44
2022-07-30T10:28:34.666Z,101645.22
2022-07-30T10:31:08.467Z,101639.06
2022-07-30T10:33:52.477Z,101631.53
2022-07-30T10:36:21.046Z,101635.94
2022-07-30T10:38:52.693Z,101635.31
2022-07-30T10:41:53.907Z,101638.38
2022-07-30T10:44:20.896Z,101635.88
2022-07-30T10:46:56.664Z,101636.00
2022-07-30T10:49:25.919Z,101633.56
2022-07-30T10:51:57.570Z,101631.91
2022-07-30T10:54:33.637Z,101636.78
2022-07-30T10:57:22.794Z,101632.59
2022-07-30T11:00:04.074Z,101621.22
2022-07-30T11:02:35.382Z,101634.28
2022-07-30T11:05:17.776Z,101629.00
2022-07-30T11:07:47.752Z,101629.34
2022-07-30T11:10:37.348Z,101633.72
2022-07-30T11:13:05.909Z,101641.97
2022-07-30T11:15:59.972Z,101642.34
2022-07-30T11:18:28.755Z,101643.63
2022-07-30T11:21:21.314Z,101645.13
2022-07-30T11:23:49.467Z,101650.69
2022-07-30T11:26:40.906Z,101652.09
2022-07-30T11:29:32.775Z,101641.78
2022-07-30T11:32:32.088Z,101645.78
2022-07-30T11:35:26.092Z,101648.50
2022-07-30T11:38:07.627Z,101650.88
2022-07-30T11:40:42.569Z,101646.53
2022-07-30T11:43:18.885Z,101653.03
2022-07-30T11:45:53.582Z,101656.53
2022-07-30T11:48:21.186Z,101652.81
2022-07-30T11:50:50.071Z,101651.66
2022-07-30T11:53:20.872Z,101650.00
2022-07-30T11:55:58.395Z,101648.06
2022-07-30T11:58:29.842Z,101640.72
2022-07-30T12:00:59.135Z,101642.19
2022-07-30T12:03:29.916Z,101640.16
2022-07-30T12:05:56.929Z,101632.84
2022-07-30T12:08:35.271Z,101635.72
2022-07-30T12:11:03.683Z,101642.50
2022-07-30T12:13:44.636Z,101634.97
2022-07-30T12:16:16.499Z,101634.50
2022-07-30T12:18:44.348Z,101637.00
2022-07-30T12:21:16.367Z,101644.75
2022-07-30T12:24:07.606Z,101643.06
2022-07-30T12:26:34.979Z,101636.47
2022-07-30T12:29:14.018Z,101645.22
2022-07-30T12:31:41.879Z,101647.53
2022-07-30T12:34:33.127Z,101651.81
2022-07-30T12:37:10.460Z,101653.28
2022-07-30T12:39:37.251Z,101647.69
2022-07-30T12:42:04.005Z,101652.94
2022-07-30T12:44:50.300Z,101647.72
2022-07-30T12:47:30.826Z,101650.22
2022-07-30T12:50:00.678Z,101643.94
2022-07-30T12:52:33.697Z,101640.44
2022-07-30T12:55:09.916Z,101648.63
2022-07-30T12:58:02.966Z,101645.13
2022-07-30T13:00:48.262Z,101636.75
2022-07-30T13:03:21.856Z,101635.75
2022-07-30T13:05:51.228Z,101632.09
2022-07-30T13:08:45.405Z,101632.69
2022-07-30T13:11:16.269Z,101621.22
2022-07-30T13:13:42.963Z,101625.38
2022-07-30T13:16:09.843Z,101625.16
2022-07-30T13:18:37.325Z,101623.88
2022-07-30T13:21:05.807Z,101624.41
2022-07-30T13:23:32.443Z,101620.81
2022-07-30T13:26:02.110Z,101613.09
2022-07-30T13:28:32.538Z,101619.28
2022-07-30T13:30:59.382Z,101615.19
2022-07-30T13:33:26.556Z,101618.78
2022-07-30T13:35:56.629Z,101616.47
2022-07-30T13:38:23.545Z,101617.00
2022-07-30T13:40:50.925Z,101620.97
2022-07-30T13:43:17.904Z,101616.44
2022-07-30T13:45:44.877Z,101618.41
2022-07-30T13:48:14.747Z,101618.25
2022-07-30T13:50:42.531Z,101615.03
2022-07-30T13:53:10.275Z,101617.34
2022-07-30T13:55:41.349Z,101614.31
2022-07-30T13:58:08.626Z,101616.59
2022-07-30T14:00:36.856Z,101606.28
2022-07-30T14:03:06.048Z,101606.81
2022-07-30T14:05:42.238Z,101594.53
2022-07-30T14:08:10.317Z,101591.22
2022-07-30T14:10:37.864Z,101591.59
2022-07-30T14:13:05.625Z,101591.22
2022-07-30T14:15:32.633Z,101589.97
2022-07-30T14:18:00.402Z,101585.63
2022-07-30T14:20:29.070Z,101583.56
2022-07-30T14:22:56.138Z,101588.28
2022-07-30T14:25:22.993Z,101585.31
2022-07-30T14:27:49.606Z,101582.34
2022-07-30T14:30:16.134Z,101580.47
2022-07-30T14:32:42.722Z,101576.97
2022-07-30T14:35:10.370Z,101575.00
2022-07-30T14:37:38.631Z,101567.38
2022-07-30T14:40:07.534Z,101577.91
2022-07-30T14:42:36.271Z,101579.44
2022-07-30T14:45:10.547Z,101586.75
2022-07-30T14:47:37.873Z,101586.88
2022-07-30T14:50:08.120Z,101589.56
2022-07-30T14:52:35.743Z,101585.84
2022-07-30T14:55:03.871Z,101589.88
2022-07-30T14:57:34.648Z,101587.59
2022-07-30T15:00:02.034Z,101592.13
2022-07-30T15:02:28.630Z,101593.66
2022-07-30T15:04:55.507Z,101603.59
2022-07-30T15:07:22.114Z,101596.28
2022-07-30T15:09:48.794Z,101600.84
2022-07-30T15:12:23.485Z,101599.91
2022-07-30T15:14:53.811Z,101594.13
2022-07-30T15:17:20.496Z,101600.94
2022-07-30T15:19:50.452Z,101591.06
2022-07-30T15:22:18.721Z,101598.66
2022-07-30T15:24:45.236Z,101610.03
2022-07-30T15:27:11.869Z,101599.00
2022-07-30T15:29:38.802Z,101601.91
2022-07-30T15:32:06.095Z,101592.75
2022-07-30T15:34:34.478Z,101596.09
2022-07-30T15:37:02.648Z,101594.84
2022-07-30T15:39:32.331Z,101603.78
2022-07-30T15:41:59.843Z,101602.53
2022-07-30T15:44:26.829Z,101604.59
2022-07-30T15:46:53.467Z,101599.75
2022-07-30T15:49:20.058Z,101592.69
2022-07-30T15:51:49.703Z,101586.06
2022-07-30T15:54:22.545Z,101591.28
2022-07-30T15:56:54.040Z,101585.09
2022-07-30T15:59:27.796Z,101579.44
2022-07-30T16:01:54.281Z,101582.19
2022-07-30T16:04:20.825Z,101575.66
2022-07-30T16:06:58.234Z,101586.91
2022-07-30T16:09:24.926Z,101580.47
2022-07-30T16:11:53.761Z,101580.34
2022-07-30T16:14:20.410Z,101582.78
2022-07-30T16:16:46.942Z,101576.72
2022-07-30T16:19:13.641Z,101584.94
2022-07-30T16:21:40.166Z,101590.81
2022-07-30T16:24:07.278Z,101583.41
2022-07-30T16:26:35.904Z,101583.59
2022-07-30T16:29:02.642Z,101588.03
2022-07-30T16:31:29.117Z,101585.84
2022-07-30T16:33:55.675Z,101595.25
2022-07-30T16:36:22.225Z,101602.75
2022-07-30T16:38:48.736Z,101595.59
2022-07-30T16:41:15.234Z,101593.59
2022-07-30T16:43:41.768Z,101588.34
2022-07-30T16:46:08.345Z,101589.97
2022-07-30T16:48:34.909Z,101585.63
2022-07-30T16:51:01.634Z,101579.09
2022-07-30T16:53:28.580Z,101582.63
2022-07-30T16:55:56.975Z,101584.88
2022-07-30T16:58:30.772Z,101584.06
2022-07-30T17:00:58.141Z,101580.84
2022-07-30T17:03:25.511Z,101582.78
2022-07-30T17:05:52.246Z,101575.06
2022-07-30T17:08:19.067Z,101585.38
2022-07-30T17:10:52.175Z,101581.94
2022-07-30T17:13:18.686Z,101581.28
2022-07-30T17:15:46.773Z,101586.38
2022-07-30T17:18:13.801Z,101586.44
2022-07-30T17:20:40.445Z,101593.19
2022-07-30T17:23:07.808Z,101592.81
2022-07-30T17:25:34.510Z,101594.22
2022-07-30T17:28:01.829Z,101594.59
2022-07-30T17:30:30.192Z,101596.91
2022-07-30T17:32:56.961Z,101596.97
2022-07-30T17:35:24.747Z,101598.72
2022-07-30T17:37:51.529Z,101592.91
2022-07-30T17:40:29.629Z,101594.94
2022-07-30T17:43:07.516Z,101596.47
2022-07-30T17:45:35.707Z,101601.56
2022-07-30T17:48:02.963Z,101606.91
2022-07-30T17:50:33.709Z,101605.81
2022-07-30T17:53:03.711Z,101607.75
2022-07-30T17:55:31.596Z,101620.13
2022-07-30T17:57:58.068Z,101608.25
2022-07-30T18:00:24.590Z,101614.53
2022-07-30T18:02:51.072Z,101619.69
2022-07-30T18:05:17.605Z,101621.66
2022-07-30T18:07:44.391Z,101631.59
2022-07-30T18:10:12.618Z,101634.13
2022-07-30T18:12:39.636Z,101636.63
2022-07-30T18:15:15.917Z,101625.06
2022-07-30T18:17:42.432Z,101634.34
2022-07-30T18:20:09.566Z,101631.09
2022-07-30T18:22:36.090Z,101634.03
2022-07-30T18:25:02.904Z,101640.31
2022-07-30T18:27:34.193Z,101636.78
2022-07-30T18:30:00.697Z,101636.53
2022-07-30T18:32:27.263Z,101632.72
2022-07-30T18:34:53.801Z,101636.97
2022-07-30T18:37:20.390Z,101639.97
2022-07-30T18:39:46.870Z,101637.47
2022-07-30T18:42:14.166Z,101641.41
2022-07-30T18:44:40.713Z,101630.38
2022-07-30T18:47:07.433Z,101635.94
2022-07-30T18:49:37.179Z,101629.88
2022-07-30T18:52:06.375Z,101627.69
2022-07-30T18:54:33.597Z,101628.28
2022-07-30T18:57:00.254Z,101632.19
2022-07-30T18:59:26.761Z,101629.72
2022-07-30T19:01:53.809Z,101635.56
2022-07-30T19:04:20.409Z,101640.25
2022-07-30T19:06:46.980Z,101650.47
2022-07-30T19:09:17.526Z,101656.84
2022-07-30T19:11:45.174Z,101659.88
2022-07-30T19:14:13.204Z,101655.75
2022-07-30T19:16:40.457Z,101657.69
2022-07-30T19:19:07.068Z,101657.13
2022-07-30T19:21:33.717Z,101664.91
2022-07-30T19:24:01.727Z,101662.41
2022-07-30T19:26:28.597Z,101665.16
2022-07-30T19:28:55.150Z,101664.84
2022-07-30T19:31:21.730Z,101661.50
2022-07-30T19:33:48.305Z,101665.91
2022-07-30T19:36:16.506Z,101670.84
2022-07-30T19:38:45.225Z,101669.16
2022-07-30T19:41:14.108Z,101667.50
2022-07-30T19:43:40.986Z,101679.09
2022-07-30T19:46:08.078Z,101676.84
2022-07-30T19:48:37.432Z,101674.59
2022-07-30T19:51:05.603Z,101673.59
2022-07-30T19:53:42.437Z,101681.28
2022-07-30T19:56:11.405Z,101680.16
2022-07-30T19:58:40.057Z,101685.47
2022-07-30T20:01:08.607Z,101691.22
2022-07-30T20:03:35.942Z,101689.53
2022-07-30T20:06:06.031Z,101697.25
2022-07-30T20:08:38.259Z,101705.50
2022-07-30T20:11:07.574Z,101701.59
2022-07-30T20:13:44.609Z,101707.38
2022-07-30T20:16:13.704Z,101703.47
2022-07-30T20:18:42.191Z,101705.13
2022-07-30T20:21:14.630Z,101703.81
2022-07-30T20:23:42.092Z,101704.13
2022-07-30T20:26:13.047Z,101702.91
2022-07-30T20:28:42.134Z,101704.28
2022-07-30T20:31:08.762Z,101700.13
2022-07-30T20:33:37.872Z,101700.91
2022-07-30T20:36:06.262Z,101708.81
2022-07-30T20:38:38.725Z,101700.25
2022-07-30T20:41:10.314Z,101690.31
2022-07-30T20:43:51.849Z,101698.34
2022-07-30T20:46:20.246Z,101703.00
2022-07-30T20:48:46.872Z,101699.03
2022-07-30T20:51:13.889Z,101707.34
2022-07-30T20:53:41.900Z,101706.59
2022-07-30T20:56:12.020Z,101717.91
2022-07-30T20:58:40.801Z,101720.69
2022-07-30T21:01:07.778Z,101712.13
2022-07-30T21:03:34.366Z,101715.63
2022-07-30T21:06:02.590Z,101726.69
2022-07-30T21:08:29.493Z,101712.00
2022-07-30T21:10:57.455Z,101712.50
2022-07-30T21:13:26.645Z,101722.69
2022-07-30T21:16:02.258Z,101718.47
2022-07-30T21:18:30.567Z,101715.41
2022-07-30T21:20:57.428Z,101709.94
2022-07-30T21:23:24.944Z,101717.13
2022-07-30T21:26:00.946Z,101713.25
2022-07-30T21:28:30.195Z,101718.75
2022-07-30T21:31:02.264Z,101716.34
2022-07-30T21:33:31.593Z,101712.16
2022-07-30T21:35:59.138Z,101717.16
2022-07-30T21:38:30.444Z,101714.44
2022-07-30T21:40:57.477Z,101717.72
2022-07-30T21:43:29.714Z,101715.81
2022-07-30T21:45:58.263Z,101720.63
2022-07-30T21:48:25.761Z,101719.16
2022-07-30T21:50:54.653Z,101718.78
2022-07-30T21:53:29.860Z,101710.75
2022-07-30T21:56:10.409Z,101714.81
2022-07-30T21:58:38.964Z,101719.25
2022-07-30T22:01:17.163Z,101716.53
2022-07-30T22:04:03.194Z,101717.47
2022-07-30T22:06:38.150Z,101716.25
2022-07-30T22:09:19.828Z,101721.31
2022-07-30T22:11:56.054Z,101720.06
2022-07-30T22:14:23.050Z,101716.41
2022-07-30T22:16:52.274Z,101716.09
2022-07-30T22:19:21.703Z,101714.38
2022-07-30T22:21:49.401Z,101712.72
2022-07-30T22:24:29.827Z,101709.09
2022-07-30T22:27:11.063Z,101705.75
2022-07-30T22:29:43.478Z,101709.25
2022-07-30T22:32:11.975Z,101707.63
2022-07-30T22:34:38.774Z,101710.44
2022-07-30T22:37:12.412Z,101704.88
2022-07-30T22:39:51.242Z,101712.28
2022-07-30T22:42:20.718Z,101708.88
2022-07-30T22:44:50.919Z,101698.34
2022-07-30T22:47:20.917Z,101703.19
2022-07-30T22:49:56.104Z,101703.63
2022-07-30T22:52:25.238Z,101704.34
2022-07-30T22:54:56.509Z,101696.78
2022-07-30T22:57:28.788Z,101691.03
2022-07-30T23:00:10.904Z,101685.81
2022-07-30T23:02:39.037Z,101692.88
2022-07-30T23:05:06.388Z,101685.66
2022-07-30T23:07:38.126Z,101687.00
2022-07-30T23:10:12.322Z,101689.25
2022-07-30T23:12:46.868Z,101687.41
2022-07-30T23:15:13.880Z,101682.91
2022-07-30T23:17:40.533Z,101688.09
2022-07-30T23:20:09.815Z,101681.56
2022-07-30T23:22:36.826Z,101678.31
2022-07-30T23:25:06.371Z,101682.59
2022-07-30T23:27:33.605Z,101678.69
2022-07-30T23:30:00.149Z,101682.47
2022-07-30T23:32:26.800Z,101674.53
2022-07-30T23:34:53.304Z,101676.41
2022-07-30T23:37:19.897Z,101671.78
2022-07-30T23:39:46.406Z,101679.59
2022-07-30T23:42:12.924Z,101674.91
2022-07-30T23:44:39.476Z,101672.41
2022-07-30T23:47:06.127Z,101666.00
2022-07-30T23:49:32.895Z,101661.84
2022-07-30T23:51:59.883Z,101676.66
2022-07-30T23:54:27.690Z,101661.78
2022-07-30T23:56:56.194Z,101666.47
2022-07-30T23:59:24.065Z,101672.72
